sensor_id;sensor_type;location;lat;lon;timestamp;temperature;humidity
81161;DHT22;70637;48.514;14.500;2024-02-26T00:01:52;27.50;29.90
81161;DHT22;70637;48.514;14.500;2024-02-26T00:04:18;27.50;30.00
81161;DHT22;70637;48.514;14.500;2024-02-26T00:06:43;27.50;29.90
81161;DHT22;70637;48.514;14.500;2024-02-26T00:09:09;27.50;30.00
81161;DHT22;70637;48.514;14.500;2024-02-26T00:11:36;27.50;30.00
81161;DHT22;70637;48.514;14.500;2024-02-26T00:14:02;27.40;30.00
81161;DHT22;70637;48.514;14.500;2024-02-26T00:16:28;27.40;30.00
81161;DHT22;70637;48.514;14.500;2024-02-26T00:18:54;27.40;30.00
81161;DHT22;70637;48.514;14.500;2024-02-26T00:21:19;27.40;30.00
81161;DHT22;70637;48.514;14.500;2024-02-26T00:23:45;27.40;30.00
81161;DHT22;70637;48.514;14.500;2024-02-26T00:26:11;27.30;30.00
81161;DHT22;70637;48.514;14.500;2024-02-26T00:28:37;27.30;30.00
81161;DHT22;70637;48.514;14.500;2024-02-26T00:31:03;27.30;30.10
81161;DHT22;70637;48.514;14.500;2024-02-26T00:33:28;27.30;30.10
81161;DHT22;70637;48.514;14.500;2024-02-26T00:35:54;27.30;30.10
81161;DHT22;70637;48.514;14.500;2024-02-26T00:38:20;27.30;30.20
81161;DHT22;70637;48.514;14.500;2024-02-26T00:40:46;27.20;30.10
81161;DHT22;70637;48.514;14.500;2024-02-26T00:43:12;27.30;30.20
81161;DHT22;70637;48.514;14.500;2024-02-26T00:45:37;27.30;30.10
81161;DHT22;70637;48.514;14.500;2024-02-26T00:48:03;27.30;30.20
81161;DHT22;70637;48.514;14.500;2024-02-26T00:50:33;27.30;30.20
81161;DHT22;70637;48.514;14.500;2024-02-26T00:52:59;27.20;30.20
81161;DHT22;70637;48.514;14.500;2024-02-26T00:55:25;27.20;30.20
81161;DHT22;70637;48.514;14.500;2024-02-26T00:57:50;27.20;30.20
81161;DHT22;70637;48.514;14.500;2024-02-26T01:00:16;27.20;30.20
81161;DHT22;70637;48.514;14.500;2024-02-26T01:02:42;27.20;30.30
81161;DHT22;70637;48.514;14.500;2024-02-26T01:05:08;27.20;30.20
81161;DHT22;70637;48.514;14.500;2024-02-26T01:07:37;27.20;30.30
81161;DHT22;70637;48.514;14.500;2024-02-26T01:10:03;27.20;30.30
81161;DHT22;70637;48.514;14.500;2024-02-26T01:12:29;27.20;30.30
81161;DHT22;70637;48.514;14.500;2024-02-26T01:14:55;27.20;30.30
81161;DHT22;70637;48.514;14.500;2024-02-26T01:17:21;27.20;30.30
81161;DHT22;70637;48.514;14.500;2024-02-26T01:19:46;27.20;30.40
81161;DHT22;70637;48.514;14.500;2024-02-26T01:22:12;27.20;30.30
81161;DHT22;70637;48.514;14.500;2024-02-26T01:24:37;27.20;30.40
81161;DHT22;70637;48.514;14.500;2024-02-26T01:27:03;27.20;30.40
81161;DHT22;70637;48.514;14.500;2024-02-26T01:29:29;27.20;30.40
81161;DHT22;70637;48.514;14.500;2024-02-26T01:31:55;27.10;30.30
81161;DHT22;70637;48.514;14.500;2024-02-26T01:34:21;27.10;30.40
81161;DHT22;70637;48.514;14.500;2024-02-26T01:36:47;27.20;30.50
81161;DHT22;70637;48.514;14.500;2024-02-26T01:39:13;27.10;30.40
81161;DHT22;70637;48.514;14.500;2024-02-26T01:41:39;27.10;30.50
81161;DHT22;70637;48.514;14.500;2024-02-26T01:44:05;27.10;30.50
81161;DHT22;70637;48.514;14.500;2024-02-26T01:46:33;27.10;30.50
81161;DHT22;70637;48.514;14.500;2024-02-26T01:49:00;27.10;30.50
81161;DHT22;70637;48.514;14.500;2024-02-26T01:51:27;27.10;30.50
81161;DHT22;70637;48.514;14.500;2024-02-26T01:53:53;27.10;30.50
81161;DHT22;70637;48.514;14.500;2024-02-26T01:56:19;27.10;30.60
81161;DHT22;70637;48.514;14.500;2024-02-26T01:58:47;27.10;30.50
81161;DHT22;70637;48.514;14.500;2024-02-26T02:01:15;27.10;30.50
81161;DHT22;70637;48.514;14.500;2024-02-26T02:03:42;27.10;30.50
81161;DHT22;70637;48.514;14.500;2024-02-26T02:06:09;27.10;30.50
81161;DHT22;70637;48.514;14.500;2024-02-26T02:08:34;27.10;30.60
81161;DHT22;70637;48.514;14.500;2024-02-26T02:11:01;27.10;30.50
81161;DHT22;70637;48.514;14.500;2024-02-26T02:13:27;27.10;30.60
81161;DHT22;70637;48.514;14.500;2024-02-26T02:15:53;27.10;30.50
81161;DHT22;70637;48.514;14.500;2024-02-26T02:18:19;27.10;30.60
81161;DHT22;70637;48.514;14.500;2024-02-26T02:20:45;27.10;30.60
81161;DHT22;70637;48.514;14.500;2024-02-26T02:23:10;27.10;30.60
81161;DHT22;70637;48.514;14.500;2024-02-26T02:25:36;27.10;30.70
81161;DHT22;70637;48.514;14.500;2024-02-26T02:28:02;27.00;30.60
81161;DHT22;70637;48.514;14.500;2024-02-26T02:30:29;27.10;30.70
81161;DHT22;70637;48.514;14.500;2024-02-26T02:32:57;27.00;30.60
81161;DHT22;70637;48.514;14.500;2024-02-26T02:35:24;27.00;30.60
81161;DHT22;70637;48.514;14.500;2024-02-26T02:37:56;27.10;30.70
81161;DHT22;70637;48.514;14.500;2024-02-26T02:40:21;27.10;30.70
81161;DHT22;70637;48.514;14.500;2024-02-26T02:42:47;27.00;30.70
81161;DHT22;70637;48.514;14.500;2024-02-26T02:45:13;27.00;30.70
81161;DHT22;70637;48.514;14.500;2024-02-26T02:47:38;27.10;30.70
81161;DHT22;70637;48.514;14.500;2024-02-26T02:50:04;27.00;30.70
81161;DHT22;70637;48.514;14.500;2024-02-26T02:52:30;27.00;30.70
81161;DHT22;70637;48.514;14.500;2024-02-26T02:54:56;27.00;30.70
81161;DHT22;70637;48.514;14.500;2024-02-26T02:57:22;27.00;30.80
81161;DHT22;70637;48.514;14.500;2024-02-26T02:59:47;27.00;30.80
81161;DHT22;70637;48.514;14.500;2024-02-26T03:02:13;27.10;30.80
81161;DHT22;70637;48.514;14.500;2024-02-26T03:04:39;27.00;30.70
81161;DHT22;70637;48.514;14.500;2024-02-26T03:07:04;27.10;30.80
81161;DHT22;70637;48.514;14.500;2024-02-26T03:09:30;27.00;30.80
81161;DHT22;70637;48.514;14.500;2024-02-26T03:11:56;27.00;30.90
81161;DHT22;70637;48.514;14.500;2024-02-26T03:14:21;27.00;30.80
81161;DHT22;70637;48.514;14.500;2024-02-26T03:16:47;27.00;30.80
81161;DHT22;70637;48.514;14.500;2024-02-26T03:19:15;27.00;30.80
81161;DHT22;70637;48.514;14.500;2024-02-26T03:21:43;27.00;30.80
81161;DHT22;70637;48.514;14.500;2024-02-26T03:24:09;27.00;30.90
81161;DHT22;70637;48.514;14.500;2024-02-26T03:26:36;27.00;30.90
81161;DHT22;70637;48.514;14.500;2024-02-26T03:29:02;27.00;30.80
81161;DHT22;70637;48.514;14.500;2024-02-26T03:31:28;27.00;30.90
81161;DHT22;70637;48.514;14.500;2024-02-26T03:33:54;27.00;30.80
81161;DHT22;70637;48.514;14.500;2024-02-26T03:36:20;27.00;30.80
81161;DHT22;70637;48.514;14.500;2024-02-26T03:38:47;27.00;30.80
81161;DHT22;70637;48.514;14.500;2024-02-26T03:41:13;27.00;30.80
81161;DHT22;70637;48.514;14.500;2024-02-26T03:43:39;27.00;30.90
81161;DHT22;70637;48.514;14.500;2024-02-26T03:46:07;27.00;30.90
81161;DHT22;70637;48.514;14.500;2024-02-26T03:48:35;27.00;30.90
81161;DHT22;70637;48.514;14.500;2024-02-26T03:51:00;27.00;30.90
81161;DHT22;70637;48.514;14.500;2024-02-26T03:53:26;27.00;30.90
81161;DHT22;70637;48.514;14.500;2024-02-26T03:55:51;27.00;30.90
81161;DHT22;70637;48.514;14.500;2024-02-26T03:58:18;27.00;30.90
81161;DHT22;70637;48.514;14.500;2024-02-26T04:00:44;27.00;30.90
81161;DHT22;70637;48.514;14.500;2024-02-26T04:03:10;27.00;31.00
81161;DHT22;70637;48.514;14.500;2024-02-26T04:05:35;27.00;30.90
81161;DHT22;70637;48.514;14.500;2024-02-26T04:08:01;27.00;30.90
81161;DHT22;70637;48.514;14.500;2024-02-26T04:10:27;27.00;31.00
81161;DHT22;70637;48.514;14.500;2024-02-26T04:12:53;26.90;30.90
81161;DHT22;70637;48.514;14.500;2024-02-26T04:15:20;27.00;31.00
81161;DHT22;70637;48.514;14.500;2024-02-26T04:17:46;27.00;31.00
81161;DHT22;70637;48.514;14.500;2024-02-26T04:20:15;26.90;30.90
81161;DHT22;70637;48.514;14.500;2024-02-26T04:22:42;27.00;31.00
81161;DHT22;70637;48.514;14.500;2024-02-26T04:25:08;26.90;30.90
81161;DHT22;70637;48.514;14.500;2024-02-26T04:27:34;26.90;31.00
81161;DHT22;70637;48.514;14.500;2024-02-26T04:29:59;27.00;31.00
81161;DHT22;70637;48.514;14.500;2024-02-26T04:32:25;26.90;30.90
81161;DHT22;70637;48.514;14.500;2024-02-26T04:34:54;27.00;31.00
81161;DHT22;70637;48.514;14.500;2024-02-26T04:37:19;26.90;31.00
81161;DHT22;70637;48.514;14.500;2024-02-26T04:39:45;27.00;31.00
81161;DHT22;70637;48.514;14.500;2024-02-26T04:42:11;26.90;31.00
81161;DHT22;70637;48.514;14.500;2024-02-26T04:44:36;26.90;31.00
81161;DHT22;70637;48.514;14.500;2024-02-26T04:47:02;26.90;31.00
81161;DHT22;70637;48.514;14.500;2024-02-26T04:49:28;26.90;31.00
81161;DHT22;70637;48.514;14.500;2024-02-26T04:51:54;26.90;31.10
81161;DHT22;70637;48.514;14.500;2024-02-26T04:54:20;26.90;31.00
81161;DHT22;70637;48.514;14.500;2024-02-26T04:56:46;26.90;31.10
81161;DHT22;70637;48.514;14.500;2024-02-26T04:59:11;26.90;31.10
81161;DHT22;70637;48.514;14.500;2024-02-26T05:01:37;26.90;31.00
81161;DHT22;70637;48.514;14.500;2024-02-26T05:04:03;26.90;31.10
81161;DHT22;70637;48.514;14.500;2024-02-26T05:06:29;26.90;31.00
81161;DHT22;70637;48.514;14.500;2024-02-26T05:08:54;26.90;31.10
81161;DHT22;70637;48.514;14.500;2024-02-26T05:11:20;26.90;31.10
81161;DHT22;70637;48.514;14.500;2024-02-26T05:13:47;26.90;31.10
81161;DHT22;70637;48.514;14.500;2024-02-26T05:16:12;26.90;31.10
81161;DHT22;70637;48.514;14.500;2024-02-26T05:18:38;26.90;31.00
81161;DHT22;70637;48.514;14.500;2024-02-26T05:21:04;26.90;31.00
81161;DHT22;70637;48.514;14.500;2024-02-26T05:23:29;26.90;31.00
81161;DHT22;70637;48.514;14.500;2024-02-26T05:25:56;26.90;31.00
81161;DHT22;70637;48.514;14.500;2024-02-26T05:28:22;26.90;31.00
81161;DHT22;70637;48.514;14.500;2024-02-26T05:30:47;26.90;31.00
81161;DHT22;70637;48.514;14.500;2024-02-26T05:33:14;26.90;31.00
81161;DHT22;70637;48.514;14.500;2024-02-26T05:35:39;26.90;30.90
81161;DHT22;70637;48.514;14.500;2024-02-26T05:38:05;26.90;31.00
81161;DHT22;70637;48.514;14.500;2024-02-26T05:40:31;26.90;31.00
81161;DHT22;70637;48.514;14.500;2024-02-26T05:42:57;26.90;31.00
81161;DHT22;70637;48.514;14.500;2024-02-26T05:45:22;26.90;30.90
81161;DHT22;70637;48.514;14.500;2024-02-26T05:47:48;26.90;31.00
81161;DHT22;70637;48.514;14.500;2024-02-26T05:50:15;26.90;31.00
81161;DHT22;70637;48.514;14.500;2024-02-26T05:52:41;26.90;31.00
81161;DHT22;70637;48.514;14.500;2024-02-26T05:55:07;26.90;31.10
81161;DHT22;70637;48.514;14.500;2024-02-26T05:57:36;26.90;31.00
81161;DHT22;70637;48.514;14.500;2024-02-26T06:00:02;26.90;31.00
81161;DHT22;70637;48.514;14.500;2024-02-26T06:02:30;26.90;31.00
81161;DHT22;70637;48.514;14.500;2024-02-26T06:04:57;26.90;31.00
81161;DHT22;70637;48.514;14.500;2024-02-26T06:07:23;26.90;31.00
81161;DHT22;70637;48.514;14.500;2024-02-26T06:09:48;26.90;31.00
81161;DHT22;70637;48.514;14.500;2024-02-26T06:12:14;26.90;30.80
81161;DHT22;70637;48.514;14.500;2024-02-26T06:14:41;26.90;30.50
81161;DHT22;70637;48.514;14.500;2024-02-26T06:17:07;26.80;30.20
81161;DHT22;70637;48.514;14.500;2024-02-26T06:19:32;26.80;30.90
81161;DHT22;70637;48.514;14.500;2024-02-26T06:21:58;26.80;29.50
81161;DHT22;70637;48.514;14.500;2024-02-26T06:24:23;26.80;29.10
81161;DHT22;70637;48.514;14.500;2024-02-26T06:26:49;26.80;28.70
81161;DHT22;70637;48.514;14.500;2024-02-26T06:29:15;26.80;28.50
81161;DHT22;70637;48.514;14.500;2024-02-26T06:31:40;26.80;28.40
81161;DHT22;70637;48.514;14.500;2024-02-26T06:34:06;26.80;28.40
81161;DHT22;70637;48.514;14.500;2024-02-26T06:36:31;26.70;28.10
81161;DHT22;70637;48.514;14.500;2024-02-26T06:38:57;26.70;28.00
81161;DHT22;70637;48.514;14.500;2024-02-26T06:41:23;26.70;27.90
81161;DHT22;70637;48.514;14.500;2024-02-26T06:43:56;26.70;28.00
81161;DHT22;70637;48.514;14.500;2024-02-26T06:46:22;26.70;28.00
81161;DHT22;70637;48.514;14.500;2024-02-26T06:48:48;26.70;28.10
81161;DHT22;70637;48.514;14.500;2024-02-26T06:51:14;26.70;28.20
81161;DHT22;70637;48.514;14.500;2024-02-26T06:53:40;26.70;28.30
81161;DHT22;70637;48.514;14.500;2024-02-26T06:56:06;26.80;28.80
81161;DHT22;70637;48.514;14.500;2024-02-26T06:58:31;26.80;28.70
81161;DHT22;70637;48.514;14.500;2024-02-26T07:00:57;26.80;28.80
81161;DHT22;70637;48.514;14.500;2024-02-26T07:03:23;26.80;28.90
81161;DHT22;70637;48.514;14.500;2024-02-26T07:05:49;26.80;29.10
81161;DHT22;70637;48.514;14.500;2024-02-26T07:08:15;26.80;29.10
81161;DHT22;70637;48.514;14.500;2024-02-26T07:10:41;26.80;29.20
81161;DHT22;70637;48.514;14.500;2024-02-26T07:13:07;26.80;29.30
81161;DHT22;70637;48.514;14.500;2024-02-26T07:15:33;26.80;29.40
81161;DHT22;70637;48.514;14.500;2024-02-26T07:17:58;26.80;30.30
81161;DHT22;70637;48.514;14.500;2024-02-26T07:20:31;26.80;29.60
81161;DHT22;70637;48.514;14.500;2024-02-26T07:22:57;26.80;29.70
81161;DHT22;70637;48.514;14.500;2024-02-26T07:25:23;26.80;29.80
81161;DHT22;70637;48.514;14.500;2024-02-26T07:27:50;26.70;29.90
81161;DHT22;70637;48.514;14.500;2024-02-26T07:30:16;26.80;29.90
81161;DHT22;70637;48.514;14.500;2024-02-26T07:32:43;26.80;30.00
81161;DHT22;70637;48.514;14.500;2024-02-26T07:35:09;26.80;30.00
81161;DHT22;70637;48.514;14.500;2024-02-26T07:37:35;26.80;30.00
81161;DHT22;70637;48.514;14.500;2024-02-26T07:40:01;26.80;30.00
81161;DHT22;70637;48.514;14.500;2024-02-26T07:42:26;26.80;30.00
81161;DHT22;70637;48.514;14.500;2024-02-26T07:44:52;26.80;30.10
81161;DHT22;70637;48.514;14.500;2024-02-26T07:47:19;26.80;30.10
81161;DHT22;70637;48.514;14.500;2024-02-26T07:49:44;26.80;30.20
81161;DHT22;70637;48.514;14.500;2024-02-26T07:52:10;26.80;30.20
81161;DHT22;70637;48.514;14.500;2024-02-26T07:54:36;26.80;30.20
81161;DHT22;70637;48.514;14.500;2024-02-26T07:57:02;26.80;30.60
81161;DHT22;70637;48.514;14.500;2024-02-26T07:59:31;26.80;30.30
81161;DHT22;70637;48.514;14.500;2024-02-26T08:01:57;26.80;30.30
81161;DHT22;70637;48.514;14.500;2024-02-26T08:04:22;26.80;30.30
81161;DHT22;70637;48.514;14.500;2024-02-26T08:06:48;26.80;30.30
81161;DHT22;70637;48.514;14.500;2024-02-26T08:09:14;26.80;30.30
81161;DHT22;70637;48.514;14.500;2024-02-26T08:11:39;26.80;30.30
81161;DHT22;70637;48.514;14.500;2024-02-26T08:14:05;26.80;30.40
81161;DHT22;70637;48.514;14.500;2024-02-26T08:16:31;26.80;30.40
81161;DHT22;70637;48.514;14.500;2024-02-26T08:18:56;26.80;30.40
81161;DHT22;70637;48.514;14.500;2024-02-26T08:21:22;26.80;30.40
81161;DHT22;70637;48.514;14.500;2024-02-26T08:23:48;26.80;30.40
81161;DHT22;70637;48.514;14.500;2024-02-26T08:26:14;26.80;30.40
81161;DHT22;70637;48.514;14.500;2024-02-26T08:28:40;26.80;30.50
81161;DHT22;70637;48.514;14.500;2024-02-26T08:31:06;26.80;30.50
81161;DHT22;70637;48.514;14.500;2024-02-26T08:33:32;26.80;30.40
81161;DHT22;70637;48.514;14.500;2024-02-26T08:35:59;26.80;30.50
81161;DHT22;70637;48.514;14.500;2024-02-26T08:38:25;26.80;30.50
81161;DHT22;70637;48.514;14.500;2024-02-26T08:40:51;26.80;30.50
81161;DHT22;70637;48.514;14.500;2024-02-26T08:43:16;26.80;30.50
81161;DHT22;70637;48.514;14.500;2024-02-26T08:45:43;26.80;30.50
81161;DHT22;70637;48.514;14.500;2024-02-26T08:48:08;26.80;30.40
81161;DHT22;70637;48.514;14.500;2024-02-26T08:50:34;26.80;30.50
81161;DHT22;70637;48.514;14.500;2024-02-26T08:53:00;26.80;30.50
81161;DHT22;70637;48.514;14.500;2024-02-26T08:55:26;26.80;30.50
81161;DHT22;70637;48.514;14.500;2024-02-26T08:57:52;26.80;30.60
81161;DHT22;70637;48.514;14.500;2024-02-26T09:00:18;26.90;30.70
81161;DHT22;70637;48.514;14.500;2024-02-26T09:02:47;26.90;30.60
81161;DHT22;70637;48.514;14.500;2024-02-26T09:05:12;26.90;30.60
81161;DHT22;70637;48.514;14.500;2024-02-26T09:07:38;27.00;30.60
81161;DHT22;70637;48.514;14.500;2024-02-26T09:10:05;27.00;30.60
81161;DHT22;70637;48.514;14.500;2024-02-26T09:12:31;27.10;30.60
81161;DHT22;70637;48.514;14.500;2024-02-26T09:14:56;27.20;30.60
81161;DHT22;70637;48.514;14.500;2024-02-26T09:17:23;27.20;30.60
81161;DHT22;70637;48.514;14.500;2024-02-26T09:19:48;27.30;30.60
81161;DHT22;70637;48.514;14.500;2024-02-26T09:22:14;27.30;30.50
81161;DHT22;70637;48.514;14.500;2024-02-26T09:24:40;27.40;30.60
81161;DHT22;70637;48.514;14.500;2024-02-26T09:27:05;27.40;30.50
81161;DHT22;70637;48.514;14.500;2024-02-26T09:29:31;27.50;30.70
81161;DHT22;70637;48.514;14.500;2024-02-26T09:31:57;27.60;30.70
81161;DHT22;70637;48.514;14.500;2024-02-26T09:34:24;27.60;30.70
81161;DHT22;70637;48.514;14.500;2024-02-26T09:36:49;27.70;30.70
81161;DHT22;70637;48.514;14.500;2024-02-26T09:39:15;27.70;30.40
81161;DHT22;70637;48.514;14.500;2024-02-26T09:41:45;27.80;30.10
81161;DHT22;70637;48.514;14.500;2024-02-26T09:44:19;27.80;29.80
81161;DHT22;70637;48.514;14.500;2024-02-26T09:46:48;27.80;29.30
81161;DHT22;70637;48.514;14.500;2024-02-26T09:49:20;27.90;28.90
81161;DHT22;70637;48.514;14.500;2024-02-26T09:51:49;27.90;28.40
81161;DHT22;70637;48.514;14.500;2024-02-26T09:54:15;27.90;28.00
81161;DHT22;70637;48.514;14.500;2024-02-26T09:56:42;27.90;27.70
81161;DHT22;70637;48.514;14.500;2024-02-26T09:59:12;28.00;27.40
81161;DHT22;70637;48.514;14.500;2024-02-26T10:01:41;28.00;27.10
81161;DHT22;70637;48.514;14.500;2024-02-26T10:04:08;28.00;27.00
81161;DHT22;70637;48.514;14.500;2024-02-26T10:06:37;28.00;26.80
81161;DHT22;70637;48.514;14.500;2024-02-26T10:09:03;28.00;26.60
81161;DHT22;70637;48.514;14.500;2024-02-26T10:11:32;28.00;26.60
81161;DHT22;70637;48.514;14.500;2024-02-26T10:13:58;28.00;26.60
81161;DHT22;70637;48.514;14.500;2024-02-26T10:16:25;28.00;26.50
81161;DHT22;70637;48.514;14.500;2024-02-26T10:18:52;28.10;26.50
81161;DHT22;70637;48.514;14.500;2024-02-26T10:21:20;28.10;26.60
81161;DHT22;70637;48.514;14.500;2024-02-26T10:23:46;28.10;26.60
81161;DHT22;70637;48.514;14.500;2024-02-26T10:26:13;28.10;26.50
81161;DHT22;70637;48.514;14.500;2024-02-26T10:28:41;28.10;26.60
81161;DHT22;70637;48.514;14.500;2024-02-26T10:56:04;28.10;27.00
81161;DHT22;70637;48.514;14.500;2024-02-26T10:58:32;28.00;27.10
81161;DHT22;70637;48.514;14.500;2024-02-26T11:00:58;28.00;27.10
81161;DHT22;70637;48.514;14.500;2024-02-26T11:03:25;28.10;27.20
81161;DHT22;70637;48.514;14.500;2024-02-26T11:05:51;28.00;27.20
81161;DHT22;70637;48.514;14.500;2024-02-26T11:08:21;28.00;27.20
81161;DHT22;70637;48.514;14.500;2024-02-26T11:10:48;28.00;27.30
81161;DHT22;70637;48.514;14.500;2024-02-26T11:13:15;28.00;27.30
81161;DHT22;70637;48.514;14.500;2024-02-26T11:15:46;28.10;27.30
81161;DHT22;70637;48.514;14.500;2024-02-26T11:18:15;28.00;27.30
81161;DHT22;70637;48.514;14.500;2024-02-26T11:20:44;28.00;27.30
81161;DHT22;70637;48.514;14.500;2024-02-26T11:23:11;28.10;27.30
81161;DHT22;70637;48.514;14.500;2024-02-26T11:25:38;28.00;27.30
81161;DHT22;70637;48.514;14.500;2024-02-26T11:28:09;28.00;27.40
81161;DHT22;70637;48.514;14.500;2024-02-26T11:30:39;28.00;27.30
81161;DHT22;70637;48.514;14.500;2024-02-26T11:33:10;28.00;27.40
81161;DHT22;70637;48.514;14.500;2024-02-26T11:35:38;28.00;27.40
81161;DHT22;70637;48.514;14.500;2024-02-26T11:38:04;28.00;27.40
81161;DHT22;70637;48.514;14.500;2024-02-26T11:40:33;28.00;27.40
81161;DHT22;70637;48.514;14.500;2024-02-26T11:43:04;28.00;27.50
81161;DHT22;70637;48.514;14.500;2024-02-26T11:50:41;28.00;27.70
81161;DHT22;70637;48.514;14.500;2024-02-26T11:53:20;28.00;27.80
81161;DHT22;70637;48.514;14.500;2024-02-26T11:55:46;28.00;27.90
81161;DHT22;70637;48.514;14.500;2024-02-26T11:58:12;28.00;27.90
81161;DHT22;70637;48.514;14.500;2024-02-26T12:00:40;28.00;27.90
81161;DHT22;70637;48.514;14.500;2024-02-26T12:03:07;28.00;27.80
81161;DHT22;70637;48.514;14.500;2024-02-26T12:05:34;28.00;27.80
81161;DHT22;70637;48.514;14.500;2024-02-26T12:08:04;28.00;27.80
81161;DHT22;70637;48.514;14.500;2024-02-26T12:10:33;28.00;27.70
81161;DHT22;70637;48.514;14.500;2024-02-26T12:15:39;28.00;27.70
81161;DHT22;70637;48.514;14.500;2024-02-26T12:18:07;28.00;27.70
81161;DHT22;70637;48.514;14.500;2024-02-26T12:20:35;28.00;27.70
81161;DHT22;70637;48.514;14.500;2024-02-26T12:23:02;28.00;27.70
81161;DHT22;70637;48.514;14.500;2024-02-26T12:25:30;28.00;27.70
81161;DHT22;70637;48.514;14.500;2024-02-26T12:27:57;28.00;27.60
81161;DHT22;70637;48.514;14.500;2024-02-26T12:30:23;28.00;27.70
81161;DHT22;70637;48.514;14.500;2024-02-26T12:32:52;28.00;27.70
81161;DHT22;70637;48.514;14.500;2024-02-26T12:35:22;28.00;27.70
81161;DHT22;70637;48.514;14.500;2024-02-26T12:37:48;28.00;27.70
81161;DHT22;70637;48.514;14.500;2024-02-26T12:40:14;28.00;27.70
81161;DHT22;70637;48.514;14.500;2024-02-26T12:42:40;28.00;27.70
81161;DHT22;70637;48.514;14.500;2024-02-26T12:45:07;28.00;27.70
81161;DHT22;70637;48.514;14.500;2024-02-26T12:47:38;28.00;27.70
81161;DHT22;70637;48.514;14.500;2024-02-26T12:50:06;28.00;27.60
81161;DHT22;70637;48.514;14.500;2024-02-26T12:52:40;28.00;27.60
81161;DHT22;70637;48.514;14.500;2024-02-26T12:55:07;28.00;27.50
81161;DHT22;70637;48.514;14.500;2024-02-26T12:57:39;28.00;27.50
81161;DHT22;70637;48.514;14.500;2024-02-26T13:00:06;28.00;27.50
81161;DHT22;70637;48.514;14.500;2024-02-26T13:02:36;28.00;27.70
81161;DHT22;70637;48.514;14.500;2024-02-26T13:05:04;28.00;27.90
81161;DHT22;70637;48.514;14.500;2024-02-26T13:07:31;28.00;28.00
81161;DHT22;70637;48.514;14.500;2024-02-26T13:09:57;28.00;28.10
81161;DHT22;70637;48.514;14.500;2024-02-26T13:12:23;28.00;28.10
81161;DHT22;70637;48.514;14.500;2024-02-26T13:14:59;28.00;28.10
81161;DHT22;70637;48.514;14.500;2024-02-26T13:17:25;28.10;28.20
81161;DHT22;70637;48.514;14.500;2024-02-26T13:19:54;28.10;28.20
81161;DHT22;70637;48.514;14.500;2024-02-26T13:22:23;28.10;28.20
81161;DHT22;70637;48.514;14.500;2024-02-26T13:24:56;28.10;28.20
81161;DHT22;70637;48.514;14.500;2024-02-26T13:27:23;28.10;28.20
81161;DHT22;70637;48.514;14.500;2024-02-26T13:30:05;28.10;28.20
81161;DHT22;70637;48.514;14.500;2024-02-26T13:32:35;28.10;28.20
81161;DHT22;70637;48.514;14.500;2024-02-26T13:35:09;28.10;28.20
81161;DHT22;70637;48.514;14.500;2024-02-26T13:37:36;28.10;28.10
81161;DHT22;70637;48.514;14.500;2024-02-26T13:40:20;28.00;28.00
81161;DHT22;70637;48.514;14.500;2024-02-26T13:42:46;28.10;27.90
81161;DHT22;70637;48.514;14.500;2024-02-26T13:45:13;28.00;27.80
81161;DHT22;70637;48.514;14.500;2024-02-26T13:47:39;28.00;27.80
81161;DHT22;70637;48.514;14.500;2024-02-26T13:50:07;27.90;27.80
81161;DHT22;70637;48.514;14.500;2024-02-26T13:52:33;27.90;27.80
81161;DHT22;70637;48.514;14.500;2024-02-26T13:54:59;27.90;27.90
81161;DHT22;70637;48.514;14.500;2024-02-26T13:57:25;27.90;27.90
81161;DHT22;70637;48.514;14.500;2024-02-26T13:59:52;27.90;27.80
81161;DHT22;70637;48.514;14.500;2024-02-26T14:02:18;27.80;27.80
81161;DHT22;70637;48.514;14.500;2024-02-26T14:04:43;27.80;27.90
81161;DHT22;70637;48.514;14.500;2024-02-26T14:07:11;27.80;27.90
81161;DHT22;70637;48.514;14.500;2024-02-26T14:09:37;27.80;27.90
81161;DHT22;70637;48.514;14.500;2024-02-26T14:12:03;27.70;27.90
81161;DHT22;70637;48.514;14.500;2024-02-26T14:14:30;27.70;27.90
81161;DHT22;70637;48.514;14.500;2024-02-26T14:16:58;27.70;28.70
81161;DHT22;70637;48.514;14.500;2024-02-26T14:19:25;27.60;27.90
81161;DHT22;70637;48.514;14.500;2024-02-26T14:21:51;27.60;28.00
81161;DHT22;70637;48.514;14.500;2024-02-26T14:24:17;27.60;28.00
81161;DHT22;70637;48.514;14.500;2024-02-26T14:26:43;27.60;28.00
81161;DHT22;70637;48.514;14.500;2024-02-26T14:29:09;27.60;28.00
81161;DHT22;70637;48.514;14.500;2024-02-26T14:31:35;27.50;27.90
81161;DHT22;70637;48.514;14.500;2024-02-26T14:34:01;27.50;28.00
81161;DHT22;70637;48.514;14.500;2024-02-26T14:36:26;27.50;28.00
81161;DHT22;70637;48.514;14.500;2024-02-26T14:38:52;27.50;28.00
81161;DHT22;70637;48.514;14.500;2024-02-26T14:41:18;27.50;28.00
81161;DHT22;70637;48.514;14.500;2024-02-26T14:43:44;27.40;28.00
81161;DHT22;70637;48.514;14.500;2024-02-26T14:46:10;27.40;28.00
81161;DHT22;70637;48.514;14.500;2024-02-26T14:48:36;27.50;28.20
81161;DHT22;70637;48.514;14.500;2024-02-26T14:51:02;27.40;28.10
81161;DHT22;70637;48.514;14.500;2024-02-26T14:53:28;27.40;28.10
81161;DHT22;70637;48.514;14.500;2024-02-26T14:55:54;27.40;28.10
81161;DHT22;70637;48.514;14.500;2024-02-26T14:58:19;27.40;28.10
81161;DHT22;70637;48.514;14.500;2024-02-26T15:00:45;27.40;28.10
81161;DHT22;70637;48.514;14.500;2024-02-26T15:03:11;27.40;28.10
81161;DHT22;70637;48.514;14.500;2024-02-26T15:05:37;27.40;28.10
81161;DHT22;70637;48.514;14.500;2024-02-26T15:08:03;27.40;28.20
81161;DHT22;70637;48.514;14.500;2024-02-26T15:10:29;27.30;28.10
81161;DHT22;70637;48.514;14.500;2024-02-26T15:12:55;27.40;28.20
81161;DHT22;70637;48.514;14.500;2024-02-26T15:15:22;27.40;28.20
81161;DHT22;70637;48.514;14.500;2024-02-26T15:17:48;27.30;28.20
81161;DHT22;70637;48.514;14.500;2024-02-26T15:20:17;27.30;28.10
81161;DHT22;70637;48.514;14.500;2024-02-26T15:22:43;27.30;28.10
81161;DHT22;70637;48.514;14.500;2024-02-26T15:25:09;27.30;28.10
81161;DHT22;70637;48.514;14.500;2024-02-26T15:27:35;27.30;28.20
81161;DHT22;70637;48.514;14.500;2024-02-26T15:30:02;27.30;28.10
81161;DHT22;70637;48.514;14.500;2024-02-26T15:32:28;27.30;28.20
81161;DHT22;70637;48.514;14.500;2024-02-26T15:34:54;27.30;28.20
81161;DHT22;70637;48.514;14.500;2024-02-26T15:37:20;27.30;28.20
81161;DHT22;70637;48.514;14.500;2024-02-26T15:39:46;27.30;28.20
81161;DHT22;70637;48.514;14.500;2024-02-26T15:42:12;27.20;28.30
81161;DHT22;70637;48.514;14.500;2024-02-26T15:44:38;27.20;28.20